Time;durP1;ratioP1;P1;durP2;ratioP2;P2;SDS_P1;SDS_P2;PMS_P1;PMS_P2;Temp;Humidity;BMP_temperature;BMP_pressure;BME280_temperature;BME280_humidity;BME280_pressure;Samples;Min_cycle;Max_cycle;Signal;HPM_P1;HPM_P2
2022/01/30 00:01:46;;;;;;;0.80;0.80;;;5.40;99.90;;;;;;5076333;28;20190;-80
2022/01/30 00:04:11;;;;;;;0.80;0.80;;;5.40;99.90;;;;;;5079087;28;20180;-79
2022/01/30 00:06:38;;;;;;;0.87;0.87;;;5.40;99.90;;;;;;5078840;28;20221;-77
2022/01/30 00:09:06;;;;;;;0.80;0.80;;;5.40;99.90;;;;;;5080951;28;20188;-77
2022/01/30 00:11:35;;;;;;;0.80;0.80;;;5.40;99.90;;;;;;5077637;28;20205;-78
2022/01/30 00:14:04;;;;;;;0.90;0.90;;;5.40;99.90;;;;;;5079814;28;20230;-80
2022/01/30 00:16:34;;;;;;;0.80;0.80;;;5.50;99.90;;;;;;5076371;28;20293;-77
2022/01/30 00:19:08;;;;;;;0.90;0.90;;;5.50;99.90;;;;;;5079120;28;20178;-79
2022/01/30 00:21:38;;;;;;;0.80;0.80;;;5.50;99.90;;;;;;5076751;28;20853;-78
2022/01/30 00:24:09;;;;;;;0.80;0.80;;;5.50;99.90;;;;;;5076950;28;20224;-78
2022/01/30 00:26:37;;;;;;;0.80;0.80;;;5.60;99.90;;;;;;5076859;28;20298;-79
2022/01/30 00:29:04;;;;;;;0.80;0.80;;;5.60;99.90;;;;;;5075752;28;20269;-78
2022/01/30 00:31:31;;;;;;;0.80;0.80;;;5.60;99.90;;;;;;5074207;28;20177;-77
2022/01/30 00:33:57;;;;;;;0.90;0.90;;;5.60;99.90;;;;;;5074438;28;20250;-78
2022/01/30 00:36:23;;;;;;;0.80;0.80;;;5.60;99.90;;;;;;5073489;28;20218;-78
2022/01/30 00:38:48;;;;;;;0.80;0.80;;;5.50;99.90;;;;;;5074117;28;20188;-78
2022/01/30 00:41:14;;;;;;;0.73;0.73;;;5.60;99.90;;;;;;5073250;28;20254;-78
2022/01/30 00:43:40;;;;;;;0.80;0.80;;;5.60;99.90;;;;;;5073445;28;20178;-77
2022/01/30 00:46:06;;;;;;;0.80;0.80;;;5.60;99.90;;;;;;5072649;28;20197;-78
2022/01/30 00:48:31;;;;;;;0.80;0.80;;;5.60;99.90;;;;;;5072315;28;20182;-77
2022/01/30 00:50:57;;;;;;;0.80;0.80;;;5.70;99.90;;;;;;5072442;28;20312;-77
2022/01/30 00:53:22;;;;;;;0.80;0.80;;;5.70;99.90;;;;;;5072256;28;20178;-78
2022/01/30 00:55:48;;;;;;;0.70;0.70;;;5.70;99.90;;;;;;5075278;28;20221;-76
2022/01/30 00:58:14;;;;;;;0.70;0.70;;;5.80;99.90;;;;;;5073292;28;20197;-78
2022/01/30 01:00:40;;;;;;;0.80;0.80;;;5.80;99.90;;;;;;5074756;28;20631;-79
2022/01/30 01:03:06;;;;;;;0.80;0.80;;;5.80;99.90;;;;;;5079868;28;20175;-79
2022/01/30 01:05:34;;;;;;;0.90;0.90;;;5.80;99.90;;;;;;5084120;28;20224;-79
2022/01/30 01:08:09;;;;;;;0.80;0.80;;;5.90;99.90;;;;;;5081598;28;20200;-78
2022/01/30 01:10:57;;;;;;;0.90;0.90;;;5.80;99.90;;;;;;5078315;28;20185;-78
2022/01/30 01:23:57;;;;;;;0.80;0.80;;;5.70;99.90;;;;;;5073599;28;20183;-78
2022/01/30 01:26:24;;;;;;;0.80;0.80;;;5.70;99.90;;;;;;5072091;28;20217;-78
2022/01/30 01:28:50;;;;;;;0.80;0.80;;;5.70;99.90;;;;;;5073104;28;20204;-78
2022/01/30 01:31:16;;;;;;;0.80;0.80;;;5.70;99.90;;;;;;5071772;28;20175;-78
2022/01/30 01:36:26;;;;;;;0.80;0.80;;;5.70;99.90;;;;;;5072015;28;20217;-77
2022/01/30 01:38:52;;;;;;;0.80;0.80;;;5.60;99.90;;;;;;5076286;28;20174;-78
2022/01/30 01:41:21;;;;;;;0.80;0.80;;;5.60;99.90;;;;;;5076692;28;20174;-78
2022/01/30 01:43:50;;;;;;;0.90;0.90;;;5.60;99.90;;;;;;5076898;28;20183;-77
2022/01/30 01:46:22;;;;;;;0.90;0.90;;;5.60;99.90;;;;;;5074251;28;20205;-77
2022/01/30 01:48:50;;;;;;;0.90;0.90;;;5.60;99.90;;;;;;5075339;28;20179;-76
2022/01/30 01:51:20;;;;;;;0.80;0.80;;;5.60;99.90;;;;;;5075761;28;20255;-77
2022/01/30 01:53:50;;;;;;;0.80;0.80;;;5.60;99.90;;;;;;5075206;28;20179;-75
2022/01/30 01:56:16;;;;;;;0.80;0.80;;;5.60;99.90;;;;;;5074985;28;20251;-78
2022/01/30 01:58:42;;;;;;;0.83;0.83;;;5.60;99.90;;;;;;5076974;28;20175;-78
2022/01/30 02:01:08;;;;;;;0.80;0.80;;;5.60;99.90;;;;;;5075380;28;20251;-77
2022/01/30 02:03:38;;;;;;;0.80;0.80;;;5.50;99.90;;;;;;5076255;28;20228;-78
2022/01/30 02:06:07;;;;;;;0.80;0.80;;;5.60;99.90;;;;;;5075546;28;20709;-77
2022/01/30 02:08:38;;;;;;;0.80;0.80;;;5.60;99.90;;;;;;5076476;28;20179;-78
2022/01/30 02:27:21;;;;;;;0.80;0.80;;;5.60;99.90;;;;;;5076444;28;20190;-77
2022/01/30 02:29:47;;;;;;;0.80;0.80;;;5.60;99.90;;;;;;5074774;28;20175;-77
2022/01/30 02:32:13;;;;;;;0.80;0.80;;;5.60;99.90;;;;;;5075038;28;20265;-77
2022/01/30 02:34:39;;;;;;;0.77;0.77;;;5.50;99.90;;;;;;5074666;28;20206;-77
2022/01/30 02:37:05;;;;;;;0.80;0.80;;;5.60;99.90;;;;;;5073888;28;20202;-77
2022/01/30 02:39:30;;;;;;;0.80;0.80;;;5.50;99.90;;;;;;5074941;28;20252;-77
2022/01/30 02:41:56;;;;;;;0.90;0.90;;;5.50;99.90;;;;;;5074289;28;20197;-77
2022/01/30 02:44:32;;;;;;;0.80;0.80;;;5.50;99.90;;;;;;5075039;28;20174;-77
2022/01/30 02:47:02;;;;;;;0.80;0.80;;;5.50;99.90;;;;;;5074094;28;20209;-77
2022/01/30 02:49:44;;;;;;;0.80;0.80;;;5.50;99.90;;;;;;5074432;28;20192;-77
2022/01/30 02:52:11;;;;;;;0.80;0.80;;;5.50;99.90;;;;;;5075018;28;20202;-77
2022/01/30 02:54:37;;;;;;;0.80;0.80;;;5.50;99.90;;;;;;5076335;28;20709;-77
2022/01/30 02:57:03;;;;;;;0.80;0.80;;;5.50;99.90;;;;;;5076815;28;20206;-77
2022/01/30 02:59:29;;;;;;;0.80;0.80;;;5.50;99.90;;;;;;5077187;28;20186;-78
2022/01/30 03:01:54;;;;;;;0.80;0.80;;;5.50;99.90;;;;;;5075937;28;20198;-77
2022/01/30 03:04:20;;;;;;;0.80;0.80;;;5.50;99.90;;;;;;5077421;28;20178;-78
2022/01/30 03:06:47;;;;;;;0.80;0.80;;;5.50;99.90;;;;;;5077518;28;20229;-77
2022/01/30 03:09:13;;;;;;;0.80;0.80;;;5.50;99.90;;;;;;5077799;28;20226;-78
2022/01/30 03:11:38;;;;;;;0.80;0.80;;;5.50;99.90;;;;;;5078603;28;20240;-78
2022/01/30 03:14:05;;;;;;;0.80;0.80;;;5.50;99.90;;;;;;5078348;28;20166;-77
2022/01/30 03:16:32;;;;;;;0.80;0.80;;;5.50;99.90;;;;;;5076951;28;20214;-78
2022/01/30 03:18:57;;;;;;;0.80;0.80;;;5.50;99.90;;;;;;5058905;28;20198;-77
2022/01/30 03:21:23;;;;;;;0.80;0.80;;;5.50;99.90;;;;;;5075172;28;20221;-77
2022/01/30 03:23:49;;;;;;;0.80;0.80;;;5.60;99.90;;;;;;5075104;28;20185;-77
2022/01/30 03:26:15;;;;;;;0.80;0.80;;;5.60;99.90;;;;;;5073482;28;20546;-76
2022/01/30 03:28:43;;;;;;;0.80;0.80;;;5.50;99.90;;;;;;5075626;28;20182;-77
2022/01/30 03:31:12;;;;;;;0.80;0.80;;;5.50;99.90;;;;;;5075450;28;20183;-77
2022/01/30 03:33:38;;;;;;;0.80;0.80;;;5.50;99.90;;;;;;5076437;28;20202;-77
2022/01/30 03:36:05;;;;;;;0.80;0.80;;;5.50;99.90;;;;;;5075537;28;20257;-77
2022/01/30 03:38:31;;;;;;;0.70;0.70;;;5.50;99.90;;;;;;5076755;28;20174;-77
2022/01/30 03:40:57;;;;;;;0.70;0.70;;;5.50;99.90;;;;;;5074368;28;20175;-77
2022/01/30 03:43:23;;;;;;;0.80;0.80;;;5.50;99.90;;;;;;5073248;28;20185;-76
2022/01/30 03:45:48;;;;;;;0.80;0.80;;;5.50;99.90;;;;;;5074484;28;20294;-77
2022/01/30 03:48:14;;;;;;;0.80;0.80;;;5.50;99.90;;;;;;5074772;28;20660;-77
2022/01/30 03:50:44;;;;;;;0.80;0.80;;;5.50;99.90;;;;;;5075341;28;20174;-78
2022/01/30 03:53:10;;;;;;;0.80;0.80;;;5.50;99.90;;;;;;5078884;28;20171;-78
2022/01/30 03:55:36;;;;;;;0.80;0.80;;;5.50;99.90;;;;;;5078664;28;20305;-77
2022/01/30 03:58:02;;;;;;;0.80;0.80;;;5.40;99.90;;;;;;5078772;28;20197;-77
2022/01/30 04:00:29;;;;;;;0.70;0.70;;;5.50;99.90;;;;;;5089344;23;20625;-78
2022/01/30 04:02:54;;;;;;;0.70;0.70;;;5.50;99.90;;;;;;5065499;28;20205;-79
2022/01/30 04:05:20;;;;;;;0.80;0.80;;;5.50;99.90;;;;;;5068051;28;20248;-79
2022/01/30 04:07:46;;;;;;;0.70;0.70;;;5.60;99.90;;;;;;5084867;28;20257;-78
2022/01/30 04:10:13;;;;;;;0.70;0.70;;;5.50;99.90;;;;;;5084212;28;20170;-76
2022/01/30 04:12:40;;;;;;;0.70;0.70;;;5.50;99.90;;;;;;5079914;28;20479;-76
2022/01/30 04:15:07;;;;;;;0.80;0.80;;;5.40;99.90;;;;;;5084119;28;20214;-75
2022/01/30 04:17:32;;;;;;;0.70;0.70;;;5.50;99.90;;;;;;5074619;28;20174;-76
2022/01/30 04:19:58;;;;;;;0.80;0.80;;;5.50;99.90;;;;;;5072959;28;20178;-76
2022/01/30 04:22:24;;;;;;;0.70;0.70;;;5.50;99.90;;;;;;5073688;28;20173;-77
2022/01/30 04:24:49;;;;;;;0.70;0.70;;;5.50;99.90;;;;;;5074357;28;20179;-77
2022/01/30 04:27:15;;;;;;;0.80;0.80;;;5.50;99.90;;;;;;5074553;28;20205;-77
2022/01/30 04:29:41;;;;;;;0.80;0.80;;;5.50;99.90;;;;;;5073920;28;20182;-77
2022/01/30 04:32:08;;;;;;;0.80;0.80;;;5.50;99.90;;;;;;5072832;28;20170;-77
2022/01/30 04:34:34;;;;;;;0.70;0.70;;;5.50;99.90;;;;;;5071539;28;20178;-78
2022/01/30 04:42:09;;;;;;;0.80;0.80;;;5.50;99.90;;;;;;5072458;28;20178;-78
2022/01/30 04:52:07;;;;;;;0.70;0.70;;;5.50;99.90;;;;;;5072271;28;20216;-77
2022/01/30 04:53:34;;;;;;;0.90;0.90;;;5.50;99.90;;;;;;5072231;28;20671;-78
2022/01/30 05:04:15;;;;;;;0.80;0.80;;;5.50;99.90;;;;;;5073170;28;20173;-78
2022/01/30 05:09:24;;;;;;;0.80;0.80;;;5.70;99.90;;;;;;5072551;28;20166;-78
2022/01/30 05:11:50;;;;;;;0.70;0.70;;;5.70;99.90;;;;;;5075141;28;20663;-78
2022/01/30 05:14:16;;;;;;;0.70;0.70;;;5.70;99.90;;;;;;5077410;28;20177;-78
2022/01/30 05:16:42;;;;;;;0.80;0.80;;;5.60;99.90;;;;;;5076517;28;20222;-77
2022/01/30 05:19:08;;;;;;;0.70;0.70;;;5.50;99.90;;;;;;5076524;28;20177;-78
2022/01/30 05:21:33;;;;;;;0.80;0.80;;;5.50;99.90;;;;;;5077184;28;20361;-78
2022/01/30 05:23:59;;;;;;;0.70;0.70;;;5.50;99.90;;;;;;5077353;28;20174;-79
2022/01/30 05:26:28;;;;;;;0.80;0.80;;;5.60;99.90;;;;;;5076598;28;20301;-81
2022/01/30 05:28:53;;;;;;;0.80;0.80;;;5.80;99.90;;;;;;5076556;28;20178;-78
2022/01/30 05:31:19;;;;;;;0.80;0.80;;;5.80;99.90;;;;;;5076768;28;20189;-78
2022/01/30 05:33:45;;;;;;;0.80;0.80;;;5.90;99.90;;;;;;5076371;28;20178;-78
2022/01/30 05:36:12;;;;;;;0.80;0.80;;;5.90;99.90;;;;;;5076034;28;20285;-78
2022/01/30 05:38:38;;;;;;;0.80;0.80;;;5.90;99.90;;;;;;5077799;28;20174;-79
2022/01/30 05:41:03;;;;;;;0.80;0.80;;;5.80;99.90;;;;;;5078203;28;20170;-79
2022/01/30 05:43:32;;;;;;;0.80;0.80;;;5.80;99.90;;;;;;5078676;28;20257;-78
2022/01/30 05:46:12;;;;;;;0.87;0.87;;;5.80;99.90;;;;;;5085907;28;20195;-77
2022/01/30 05:48:38;;;;;;;0.80;0.80;;;5.80;99.90;;;;;;5086043;28;20182;-78
2022/01/30 05:51:04;;;;;;;0.80;0.80;;;5.90;99.90;;;;;;5078955;28;20175;-79
2022/01/30 05:53:30;;;;;;;0.80;0.80;;;5.90;99.90;;;;;;5079615;28;20179;-78
2022/01/30 05:55:55;;;;;;;0.80;0.80;;;5.90;99.90;;;;;;5083020;28;20301;-76
2022/01/30 05:58:21;;;;;;;0.70;0.70;;;5.90;99.90;;;;;;5081524;28;20174;-77
2022/01/30 06:00:46;;;;;;;0.77;0.77;;;5.90;99.90;;;;;;5085960;28;20194;-77
2022/01/30 06:03:12;;;;;;;0.80;0.80;;;5.90;99.90;;;;;;5086918;28;20182;-78
2022/01/30 06:05:39;;;;;;;0.80;0.80;;;5.90;99.90;;;;;;5087563;28;20194;-78
2022/01/30 06:08:17;;;;;;;0.77;0.77;;;5.90;99.90;;;;;;5086451;28;20231;-77
2022/01/30 06:10:42;;;;;;;0.80;0.80;;;5.80;99.90;;;;;;5084458;28;20175;-76
2022/01/30 06:13:08;;;;;;;0.80;0.80;;;5.90;99.90;;;;;;5083378;28;20182;-76
2022/01/30 06:15:33;;;;;;;0.80;0.80;;;5.90;91.80;;;;;;5082239;28;20221;-76
2022/01/30 06:17:59;;;;;;;0.83;0.83;;;5.90;99.90;;;;;;5081807;28;20178;-77
2022/01/30 06:20:25;;;;;;;0.80;0.80;;;6.00;98.20;;;;;;5085200;28;20180;-78
2022/01/30 06:22:50;;;;;;;0.70;0.70;;;5.80;99.90;;;;;;5081655;28;20171;-78
2022/01/30 06:25:16;;;;;;;0.80;0.80;;;5.80;99.90;;;;;;5085072;28;20688;-79
2022/01/30 06:27:41;;;;;;;0.80;0.80;;;5.90;99.90;;;;;;5085005;28;20242;-79
2022/01/30 06:30:08;;;;;;;0.70;0.70;;;5.80;99.90;;;;;;5084838;28;20178;-78
2022/01/30 06:32:34;;;;;;;0.80;0.80;;;5.80;99.90;;;;;;5083928;28;20186;-78
2022/01/30 06:35:00;;;;;;;0.80;0.80;;;5.90;95.60;;;;;;5084325;28;20214;-78
2022/01/30 06:37:26;;;;;;;0.80;0.80;;;5.90;19.40;;;;;;5082479;28;20189;-78
2022/01/30 06:39:52;;;;;;;0.80;0.80;;;5.80;1.00;;;;;;5075038;28;20257;-76
2022/01/30 06:42:18;;;;;;;0.70;0.70;;;6.10;1.00;;;;;;5073994;28;20731;-75
2022/01/30 06:44:44;;;;;;;0.80;0.80;;;6.20;1.00;;;;;;5073973;28;20174;-75
2022/01/30 06:47:09;;;;;;;0.80;0.80;;;6.20;1.00;;;;;;5072870;28;20198;-75
2022/01/30 06:49:35;;;;;;;0.80;0.80;;;6.00;1.00;;;;;;5073009;28;20178;-75
2022/01/30 06:52:00;;;;;;;0.70;0.70;;;6.10;1.00;;;;;;5072875;28;20655;-75
2022/01/30 06:54:26;;;;;;;0.70;0.70;;;6.00;1.00;;;;;;5072625;28;20983;-75
2022/01/30 06:56:52;;;;;;;0.70;0.70;;;5.90;1.00;;;;;;5072334;28;20202;-75
2022/01/30 06:59:17;;;;;;;0.80;0.80;;;6.00;1.00;;;;;;5073007;28;20198;-75
2022/01/30 07:01:43;;;;;;;0.70;0.70;;;6.00;1.00;;;;;;5072794;28;20265;-76
2022/01/30 07:04:09;;;;;;;0.80;0.80;;;6.10;1.00;;;;;;5071799;28;20174;-75
2022/01/30 07:06:34;;;;;;;0.70;0.70;;;5.80;1.00;;;;;;5077920;28;20182;-76
2022/01/30 07:09:00;;;;;;;0.70;0.70;;;5.50;1.00;;;;;;5078216;28;20695;-77
2022/01/30 07:11:25;;;;;;;0.73;0.73;;;5.30;1.00;;;;;;5078187;28;20175;-76
2022/01/30 07:13:51;;;;;;;0.80;0.80;;;5.20;1.00;;;;;;5077536;28;20182;-78
2022/01/30 07:16:16;;;;;;;0.80;0.80;;;5.20;1.00;;;;;;5080483;28;20569;-78
2022/01/30 07:18:42;;;;;;;0.70;0.70;;;5.10;1.00;;;;;;5078289;28;20163;-76
2022/01/30 07:21:09;;;;;;;0.80;0.80;;;5.00;1.00;;;;;;5078699;28;20179;-77
2022/01/30 07:23:36;;;;;;;0.80;0.80;;;5.20;1.00;;;;;;5076337;28;20178;-76
2022/01/30 07:26:01;;;;;;;0.70;0.70;;;5.20;1.00;;;;;;5074346;28;20194;-77
2022/01/30 07:28:27;;;;;;;0.80;0.80;;;5.10;1.00;;;;;;5073789;28;20182;-76
2022/01/30 07:30:53;;;;;;;0.80;0.80;;;5.10;1.00;;;;;;5076342;28;20253;-77
2022/01/30 07:33:18;;;;;;;0.70;0.70;;;5.10;1.00;;;;;;5075700;28;20171;-77
2022/01/30 07:35:44;;;;;;;0.80;0.80;;;5.00;1.00;;;;;;5075725;28;20288;-76
2022/01/30 07:38:10;;;;;;;0.80;0.80;;;5.00;1.00;;;;;;5075633;28;20187;-77
2022/01/30 07:40:37;;;;;;;0.80;0.80;;;5.00;1.00;;;;;;5077074;28;20205;-77
2022/01/30 07:43:03;;;;;;;0.80;0.80;;;5.00;1.00;;;;;;5077869;28;20242;-77
2022/01/30 07:45:28;;;;;;;0.80;0.80;;;5.10;1.00;;;;;;5076710;28;20277;-76
2022/01/30 07:47:54;;;;;;;0.80;0.80;;;5.20;1.00;;;;;;5076641;28;20216;-76
2022/01/30 07:50:20;;;;;;;0.70;0.70;;;5.20;1.00;;;;;;5078078;28;20664;-77
2022/01/30 07:52:46;;;;;;;0.87;0.87;;;5.30;1.00;;;;;;5073749;28;20182;-77
2022/01/30 07:55:11;;;;;;;0.90;0.90;;;5.40;1.00;;;;;;5074186;28;20213;-76
2022/01/30 07:57:37;;;;;;;0.80;0.80;;;6.60;1.00;;;;;;5074057;28;20163;-76
2022/01/30 08:00:04;;;;;;;0.80;0.80;;;6.60;1.00;;;;;;5073599;28;20243;-77
2022/01/30 08:02:30;;;;;;;0.70;0.70;;;7.30;91.90;;;;;;5074028;28;20678;-76
2022/01/30 08:04:55;;;;;;;0.70;0.70;;;8.40;1.00;;;;;;5073832;28;20182;-76
2022/01/30 08:07:21;;;;;;;0.70;0.70;;;7.60;99.90;;;;;;5072205;28;20194;-77
2022/01/30 08:09:47;;;;;;;0.60;0.60;;;6.70;99.90;;;;;;5072271;28;20185;-76
2022/01/30 08:12:12;;;;;;;0.70;0.70;;;7.70;1.00;;;;;;5071611;28;20193;-75
2022/01/30 08:14:38;;;;;;;0.60;0.60;;;8.60;1.00;;;;;;5071702;28;20636;-75
2022/01/30 08:17:04;;;;;;;0.60;0.60;;;8.60;77.50;;;;;;5070649;28;20280;-76
2022/01/30 08:19:29;;;;;;;0.70;0.70;;;8.80;99.90;;;;;;5071726;28;20189;-76
2022/01/30 08:21:57;;;;;;;0.60;0.60;;;7.60;15.20;;;;;;5071272;28;20194;-76
2022/01/30 08:24:24;;;;;;;0.60;0.60;;;6.70;1.00;;;;;;5070584;28;20181;-76
2022/01/30 08:26:50;;;;;;;0.63;0.63;;;6.80;99.90;;;;;;5071578;28;20190;-77
2022/01/30 08:29:16;;;;;;;0.70;0.70;;;7.30;99.90;;;;;;5076970;28;20193;-77
2022/01/30 08:31:42;;;;;;;0.63;0.63;;;7.70;99.90;;;;;;5076818;28;20242;-78
2022/01/30 08:34:07;;;;;;;0.50;0.50;;;8.40;1.00;;;;;;5074788;28;20178;-77
2022/01/30 08:36:33;;;;;;;0.60;0.60;;;10.00;1.00;;;;;;5078291;28;20374;-80
2022/01/30 08:38:58;;;;;;;0.57;0.57;;;9.80;1.00;;;;;;5077784;28;20178;-76
2022/01/30 08:41:24;;;;;;;0.50;0.50;;;10.00;99.90;;;;;;5074779;28;20227;-77
2022/01/30 08:43:49;;;;;;;0.50;0.50;;;10.20;99.90;;;;;;5073525;28;20174;-76
2022/01/30 08:46:15;;;;;;;0.40;0.40;;;10.00;99.90;;;;;;5070934;28;20194;-77
2022/01/30 08:48:41;;;;;;;0.50;0.50;;;10.40;99.90;;;;;;5071179;28;20183;-75
2022/01/30 08:51:07;;;;;;;0.50;0.50;;;10.90;99.90;;;;;;5071292;28;20186;-76
2022/01/30 08:53:32;;;;;;;0.43;0.43;;;11.60;72.00;;;;;;5071400;28;20175;-76
2022/01/30 08:55:58;;;;;;;0.50;0.50;;;10.80;1.00;;;;;;5070862;28;20245;-76
2022/01/30 08:58:24;;;;;;;0.40;0.40;;;10.60;99.90;;;;;;5071341;28;20177;-76
2022/01/30 09:00:50;;;;;;;0.40;0.40;;;10.40;99.90;;;;;;5070540;28;20736;-74
2022/01/30 09:03:15;;;;;;;0.50;0.50;;;9.00;1.00;;;;;;5070752;28;20208;-76
2022/01/30 09:05:41;;;;;;;0.60;0.60;;;7.80;99.90;;;;;;5070258;28;20209;-76
2022/01/30 09:08:08;;;;;;;0.50;0.50;;;7.20;1.00;;;;;;5050219;28;20214;-76
2022/01/30 09:10:36;;;;;;;0.60;0.60;;;6.90;1.00;;;;;;5050920;28;20175;-77
2022/01/30 09:13:03;;;;;;;0.87;0.87;;;6.80;1.00;;;;;;5051055;28;20249;-76
2022/01/30 09:15:29;;;;;;;0.80;0.80;;;6.90;1.00;;;;;;5050443;28;20213;-75
2022/01/30 09:17:57;;;;;;;0.60;0.60;;;6.80;1.00;;;;;;5050630;28;20578;-78
2022/01/30 09:20:23;;;;;;;0.70;0.70;;;6.60;1.00;;;;;;5050866;28;20175;-75
2022/01/30 09:22:51;;;;;;;0.70;0.70;;;6.50;1.00;;;;;;5051201;28;20171;-78
2022/01/30 09:25:17;;;;;;;0.80;0.80;;;6.40;1.00;;;;;;5051739;28;20191;-78
2022/01/30 09:27:43;;;;;;;0.60;0.60;;;8.10;1.00;;;;;;5050786;28;20167;-78
2022/01/30 09:30:09;;;;;;;0.60;0.60;;;10.20;1.00;;;;;;5050813;28;20194;-78
2022/01/30 09:32:34;;;;;;;0.50;0.50;;;11.00;99.90;;;;;;5049126;28;20262;-75
2022/01/30 09:35:00;;;;;;;0.60;0.60;;;11.10;99.90;;;;;;5047595;28;20310;-76
2022/01/30 09:37:26;;;;;;;0.50;0.50;;;9.00;1.00;;;;;;5040862;28;20183;-76
2022/01/30 09:39:51;;;;;;;0.60;0.60;;;8.60;99.90;;;;;;5047240;28;20175;-75
2022/01/30 09:42:17;;;;;;;0.50;0.50;;;8.30;99.90;;;;;;5047848;28;20179;-76
2022/01/30 09:44:44;;;;;;;0.50;0.50;;;8.00;99.90;;;;;;5049034;28;20179;-77
2022/01/30 09:47:13;;;;;;;0.50;0.50;;;7.90;1.00;;;;;;5049061;28;20230;-76
2022/01/30 09:49:40;;;;;;;0.60;0.60;;;9.20;1.00;;;;;;5050616;28;20210;-76
2022/01/30 09:52:08;;;;;;;0.50;0.50;;;11.00;99.90;;;;;;5050479;28;20205;-76
2022/01/30 09:54:34;;;;;;;0.50;0.50;;;12.20;42.00;;;;;;5050236;28;20179;-77
2022/01/30 09:56:59;;;;;;;0.50;0.50;;;13.20;1.00;;;;;;5049753;28;20199;-77
2022/01/30 09:59:25;;;;;;;0.50;0.50;;;13.50;1.00;;;;;;5053405;28;20206;-76
2022/01/30 10:01:50;;;;;;;0.40;0.40;;;14.20;1.00;;;;;;5056721;23;20231;-76
2022/01/30 10:04:16;;;;;;;0.40;0.40;;;14.90;1.00;;;;;;5035213;28;20188;-76
2022/01/30 10:06:54;;;;;;;0.30;0.30;;;14.40;1.00;;;;;;5034708;28;20199;-78
2022/01/30 10:09:29;;;;;;;0.30;0.30;;;14.70;1.00;;;;;;5035416;28;20188;-78
2022/01/30 10:12:12;;;;;;;0.30;0.30;;;14.80;1.00;;;;;;5036196;28;20533;-78
2022/01/30 10:15:16;;;;;;;0.40;0.40;;;14.60;1.00;;;;;;5037126;28;20259;-78
2022/01/30 10:17:51;;;;;;;0.33;0.33;;;12.40;1.00;;;;;;4954222;29;20186;-75
2022/01/30 10:20:19;;;;;;;0.40;0.40;;;12.60;1.00;;;;;;5024518;28;20544;-76
2022/01/30 10:23:01;;;;;;;0.40;0.40;;;13.90;1.00;;;;;;5034442;28;20690;-76
2022/01/30 10:25:32;;;;;;;0.30;0.30;;;15.20;1.00;;;;;;5033941;28;20220;-76
2022/01/30 10:28:16;;;;;;;0.30;0.30;;;14.70;1.00;;;;;;5034643;28;20180;-76
2022/01/30 10:30:55;;;;;;;0.33;0.33;;;14.40;1.00;;;;;;5034696;28;20270;-76
2022/01/30 10:33:36;;;;;;;0.40;0.40;;;13.80;1.00;;;;;;5034466;28;20179;-76
2022/01/30 10:36:03;;;;;;;0.40;0.40;;;11.80;1.00;;;;;;5033543;28;20223;-76
2022/01/30 10:38:33;;;;;;;0.30;0.30;;;12.20;1.00;;;;;;5034166;28;20214;-76
2022/01/30 10:41:18;;;;;;;0.43;0.43;;;12.00;1.00;;;;;;5034094;28;20176;-76
2022/01/30 10:43:52;;;;;;;0.40;0.40;;;11.50;1.00;;;;;;5034242;28;20183;-76
2022/01/30 10:46:23;;;;;;;0.40;0.40;;;12.20;1.00;;;;;;5033372;28;20219;-76
2022/01/30 10:48:52;;;;;;;0.40;0.40;;;11.20;1.00;;;;;;5033978;28;20231;-75
2022/01/30 10:51:18;;;;;;;0.40;0.40;;;10.70;1.00;;;;;;5033780;28;20717;-75
2022/01/30 10:53:46;;;;;;;0.40;0.40;;;9.80;1.00;;;;;;5033700;28;20207;-75
2022/01/30 10:56:25;;;;;;;0.50;0.50;;;10.00;1.00;;;;;;5033246;28;20204;-76
2022/01/30 10:59:09;;;;;;;0.40;0.40;;;11.00;1.00;;;;;;5033749;28;20176;-76
2022/01/30 11:01:36;;;;;;;0.40;0.40;;;11.70;1.00;;;;;;5033705;28;20200;-76
2022/01/30 11:04:02;;;;;;;0.50;0.50;;;11.80;1.00;;;;;;5033617;28;20653;-75
2022/01/30 11:06:29;;;;;;;0.40;0.40;;;11.50;1.00;;;;;;5033077;28;20215;-75
2022/01/30 11:09:05;;;;;;;0.30;0.30;;;11.90;1.00;;;;;;5033704;28;20180;-76
2022/01/30 11:11:36;;;;;;;0.40;0.40;;;12.60;1.00;;;;;;5033541;28;20181;-76
2022/01/30 11:14:15;;;;;;;0.40;0.40;;;11.50;1.00;;;;;;5033581;28;20187;-75
2022/01/30 11:19:23;;;;;;;0.40;0.40;;;9.50;1.00;;;;;;5034892;28;20530;-75
2022/01/30 11:21:51;;;;;;;0.50;0.50;;;10.10;99.90;;;;;;5033520;28;20379;-76
2022/01/30 11:24:19;;;;;;;0.40;0.40;;;11.00;1.00;;;;;;5033350;28;20180;-75
2022/01/30 11:26:45;;;;;;;0.40;0.40;;;12.40;1.00;;;;;;5032563;28;20230;-75
2022/01/30 11:29:13;;;;;;;0.40;0.40;;;13.70;1.00;;;;;;5033029;28;20187;-76
2022/01/30 11:31:39;;;;;;;0.40;0.40;;;13.40;1.00;;;;;;5030035;28;20195;-75
2022/01/30 11:34:04;;;;;;;0.40;0.40;;;14.00;1.00;;;;;;5016857;28;20176;-75
2022/01/30 11:36:33;;;;;;;0.50;0.50;;;14.10;1.00;;;;;;5012811;28;20211;-76
2022/01/30 11:39:00;;;;;;;0.40;0.40;;;14.70;1.00;;;;;;5013328;28;20204;-75
2022/01/30 11:41:26;;;;;;;0.30;0.30;;;14.30;1.00;;;;;;5013133;28;20635;-76
2022/01/30 11:44:19;;;;;;;0.40;0.40;;;14.80;1.00;;;;;;5013186;28;20183;-76
2022/01/30 11:46:58;;;;;;;0.30;0.30;;;15.20;1.00;;;;;;5012679;28;20354;-76
2022/01/30 11:50:02;;;;;;;0.30;0.30;;;13.30;1.00;;;;;;5013026;28;20681;-76
2022/01/30 11:52:45;;;;;;;0.40;0.40;;;11.00;1.00;;;;;;5012323;28;20227;-76
2022/01/30 11:55:39;;;;;;;0.50;0.50;;;10.20;1.00;;;;;;5012492;28;20181;-76
2022/01/30 11:58:05;;;;;;;0.40;0.40;;;9.70;1.00;;;;;;5012981;28;20192;-75
2022/01/30 12:00:41;;;;;;;0.40;0.40;;;10.70;1.00;;;;;;5013134;28;20196;-77
2022/01/30 12:03:27;;;;;;;0.40;0.40;;;11.60;1.00;;;;;;5013185;28;20188;-78
2022/01/30 12:05:55;;;;;;;0.50;0.50;;;9.60;1.00;;;;;;5015500;28;20224;-76
2022/01/30 12:08:50;;;;;;;0.43;0.43;;;9.70;1.00;;;;;;5015064;28;20191;-76
2022/01/30 12:11:36;;;;;;;0.53;0.53;;;10.70;1.00;;;;;;5011623;28;20267;-76
2022/01/30 12:14:05;;;;;;;0.40;0.40;;;9.30;1.00;;;;;;4998299;28;20262;-76
2022/01/30 12:16:49;;;;;;;0.50;0.50;;;8.50;1.00;;;;;;5012287;28;20204;-76
2022/01/30 12:19:45;;;;;;;0.50;0.50;;;10.30;1.00;;;;;;5016019;28;20263;-77
2022/01/30 12:22:17;;;;;;;0.35;0.35;;;10.00;1.00;;;;;;5023767;28;20423;-77
2022/01/30 12:24:44;;;;;;;0.57;0.57;;;9.90;1.00;;;;;;5014117;28;20168;-75
2022/01/30 12:27:10;;;;;;;0.50;0.50;;;9.10;1.00;;;;;;5013614;28;20287;-76
2022/01/30 12:29:44;;;;;;;0.50;0.50;;;8.90;1.00;;;;;;5014147;28;20323;-76
2022/01/30 12:32:24;;;;;;;0.50;0.50;;;8.70;1.00;;;;;;5015782;28;20208;-75
2022/01/30 12:34:56;;;;;;;0.50;0.50;;;11.40;1.00;;;;;;5024740;28;20201;-76
2022/01/30 12:37:23;;;;;;;0.50;0.50;;;10.60;1.00;;;;;;5014745;28;20261;-77
2022/01/30 12:39:49;;;;;;;0.50;0.50;;;11.10;1.00;;;;;;5020266;28;20242;-76
2022/01/30 12:42:16;;;;;;;0.40;0.40;;;11.90;1.00;;;;;;5021045;28;20171;-76
2022/01/30 12:44:43;;;;;;;0.50;0.50;;;9.90;1.00;;;;;;5024324;28;20588;-76
2022/01/30 12:47:08;;;;;;;0.50;0.50;;;8.90;1.00;;;;;;5020259;28;20192;-76
2022/01/30 12:49:41;;;;;;;0.50;0.50;;;8.20;1.00;;;;;;5016488;28;20195;-75
2022/01/30 12:52:09;;;;;;;0.50;0.50;;;9.30;1.00;;;;;;5022705;28;20579;-76
2022/01/30 12:54:40;;;;;;;0.50;0.50;;;10.30;1.00;;;;;;5022250;28;20653;-77
2022/01/30 12:57:06;;;;;;;0.60;0.60;;;12.20;1.00;;;;;;5025064;28;20200;-77
2022/01/30 12:59:32;;;;;;;0.57;0.57;;;12.90;1.00;;;;;;5015608;28;20211;-77
2022/01/30 13:02:05;;;;;;;0.50;0.50;;;10.00;1.00;;;;;;5019610;28;20212;-76
2022/01/30 13:04:31;;;;;;;0.60;0.60;;;9.30;1.00;;;;;;5019709;28;20526;-76
2022/01/30 13:06:56;;;;;;;0.50;0.50;;;9.30;1.00;;;;;;5021906;28;20219;-77
2022/01/30 13:09:25;;;;;;;0.53;0.53;;;8.60;1.00;;;;;;5024507;28;20168;-76
2022/01/30 13:11:54;;;;;;;0.50;0.50;;;8.20;1.00;;;;;;5023917;28;20179;-76
2022/01/30 13:14:21;;;;;;;0.57;0.57;;;8.70;30.80;;;;;;5021349;28;20256;-76
2022/01/30 13:16:49;;;;;;;0.60;0.60;;;8.30;22.20;;;;;;5018945;28;20192;-76
2022/01/30 13:19:29;;;;;;;0.60;0.60;;;7.90;99.90;;;;;;5024577;28;20191;-76
2022/01/30 13:21:54;;;;;;;0.60;0.60;;;7.70;1.00;;;;;;5031684;28;20182;-77
2022/01/30 13:24:20;;;;;;;0.57;0.57;;;8.60;99.90;;;;;;5031890;28;20183;-76
2022/01/30 13:26:48;;;;;;;0.50;0.50;;;10.90;1.00;;;;;;5031353;28;20233;-77
2022/01/30 13:29:19;;;;;;;0.50;0.50;;;11.30;1.00;;;;;;5031378;28;20180;-78
2022/01/30 13:31:54;;;;;;;0.53;0.53;;;11.40;1.00;;;;;;5031686;28;20176;-77
2022/01/30 13:34:22;;;;;;;0.50;0.50;;;13.00;1.00;;;;;;5035468;28;20175;-77
2022/01/30 13:36:54;;;;;;;0.50;0.50;;;12.60;1.00;;;;;;5034729;28;20213;-77
2022/01/30 13:39:28;;;;;;;0.50;0.50;;;10.20;1.00;;;;;;5035728;28;20172;-76
2022/01/30 13:42:16;;;;;;;0.57;0.57;;;9.50;1.00;;;;;;5035263;28;20206;-77
2022/01/30 13:45:03;;;;;;;0.67;0.67;;;8.40;41.00;;;;;;5035136;28;20203;-76
2022/01/30 13:47:28;;;;;;;0.40;0.40;;;7.90;99.90;;;;;;5034390;28;20179;-76
2022/01/30 13:49:54;;;;;;;0.70;0.70;;;7.70;99.90;;;;;;5035042;28;20194;-76
2022/01/30 13:52:19;;;;;;;0.60;0.60;;;7.60;1.00;;;;;;5037174;28;20283;-76
2022/01/30 13:55:03;;;;;;;0.67;0.67;;;7.40;1.00;;;;;;5035042;28;20179;-76
2022/01/30 13:57:40;;;;;;;0.70;0.70;;;7.40;1.00;;;;;;5034705;28;20586;-76
2022/01/30 14:00:19;;;;;;;0.70;0.70;;;9.10;99.90;;;;;;5036039;28;20254;-76
2022/01/30 14:03:02;;;;;;;0.70;0.70;;;7.90;99.90;;;;;;5034759;28;20677;-76